createdAt,value
2018-11-26T00:03:38.198Z,83.98
2018-11-26T00:08:40.365Z,84.18
2018-11-26T00:13:42.380Z,84.35
2018-11-26T00:18:44.452Z,84.18
2018-11-26T00:23:46.909Z,84.32
2018-11-26T00:28:49.008Z,84.45
2018-11-26T00:33:51.042Z,84.42
2018-11-26T00:38:53.102Z,84.23
2018-11-26T00:43:55.181Z,84.43
2018-11-26T00:48:57.561Z,84.29
2018-11-26T00:53:59.624Z,84.29
2018-11-26T00:59:01.662Z,84.07
2018-11-26T01:04:04.352Z,84.06
2018-11-26T01:09:07.671Z,83.75
2018-11-26T01:14:10.009Z,84.18
2018-11-26T01:19:12.883Z,84.36
2018-11-26T01:24:15.291Z,84.20
2018-11-26T01:29:17.469Z,84.25
2018-11-26T01:34:19.538Z,84.36
2018-11-26T01:39:22.407Z,84.41
2018-11-26T01:44:24.415Z,84.32
2018-11-26T01:49:26.919Z,84.26
2018-11-26T01:54:28.983Z,84.00
2018-11-26T01:59:31.292Z,83.76
2018-11-26T02:04:33.341Z,83.57
2018-11-26T02:09:35.361Z,83.66
2018-11-26T02:14:37.375Z,83.38
2018-11-26T02:19:39.704Z,82.60
2018-11-26T02:24:41.737Z,82.80
2018-11-26T02:29:43.752Z,82.61
2018-11-26T02:34:45.943Z,82.88
2018-11-26T02:39:47.955Z,83.12
2018-11-26T02:44:50.030Z,82.70
2018-11-26T02:49:52.497Z,82.29
2018-11-26T02:54:54.521Z,82.19
2018-11-26T02:59:56.765Z,82.13
2018-11-26T03:04:58.944Z,81.68
2018-11-26T03:10:00.952Z,81.77
2018-11-26T03:15:03.037Z,80.89
2018-11-26T03:20:06.548Z,80.85
2018-11-26T03:25:09.654Z,80.67
2018-11-26T03:30:12.932Z,80.73
2018-11-26T03:35:15.992Z,80.51
2018-11-26T03:40:18.009Z,80.63
2018-11-26T03:45:20.317Z,80.93
2018-11-26T03:50:22.365Z,81.14
2018-11-26T03:55:24.403Z,81.03
2018-11-26T04:00:26.584Z,80.89
2018-11-26T04:05:28.596Z,81.21
2018-11-26T04:10:30.585Z,81.38
2018-11-26T04:15:32.769Z,81.63
2018-11-26T04:20:34.891Z,82.26
2018-11-26T04:25:37.153Z,82.25
2018-11-26T04:30:39.200Z,82.31
2018-11-26T04:35:41.263Z,82.14
2018-11-26T04:40:43.284Z,82.33
2018-11-26T04:45:45.300Z,82.02
2018-11-26T04:50:47.483Z,82.11
2018-11-26T04:55:49.544Z,82.33
2018-11-26T05:00:51.614Z,82.51
2018-11-26T05:05:53.704Z,82.67
2018-11-26T05:10:55.961Z,82.86
2018-11-26T05:15:57.985Z,82.84
2018-11-26T05:21:00.423Z,82.67
2018-11-26T05:26:02.460Z,82.57
2018-11-26T05:31:05.044Z,82.10
2018-11-26T05:36:07.489Z,82.37
2018-11-26T05:41:09.516Z,81.85
2018-11-26T05:46:11.574Z,81.88
2018-11-26T05:51:13.861Z,82.50
2018-11-26T05:56:15.896Z,82.60
2018-11-26T06:01:17.961Z,82.65
2018-11-26T06:06:20.377Z,82.44
2018-11-26T06:11:22.445Z,82.85
2018-11-26T06:16:24.460Z,82.65
2018-11-26T06:21:26.972Z,82.53
2018-11-26T06:26:29.032Z,81.69
2018-11-26T06:31:31.879Z,81.12
2018-11-26T06:36:33.936Z,81.60
2018-11-26T06:41:36.614Z,82.15
2018-11-26T06:46:38.646Z,82.05
2018-11-26T06:51:40.798Z,81.06
2018-11-26T06:56:43.028Z,80.26
2018-11-26T07:01:45.136Z,79.79
2018-11-26T07:06:47.165Z,79.82
2018-11-26T07:11:49.197Z,80.15
2018-11-26T07:16:51.216Z,81.14
2018-11-26T07:21:53.488Z,81.53
2018-11-26T07:26:55.916Z,81.26
2018-11-26T07:31:58.145Z,81.65
2018-11-26T07:37:00.205Z,81.11
2018-11-26T07:42:02.248Z,81.46
2018-11-26T07:47:04.557Z,81.71
2018-11-26T07:52:06.884Z,81.20
2018-11-26T07:57:08.984Z,81.35
2018-11-26T08:02:11.085Z,81.44
2018-11-26T08:07:13.145Z,81.16
2018-11-26T08:12:15.168Z,80.97
2018-11-26T08:17:17.225Z,81.73
2018-11-26T08:22:19.623Z,81.32
2018-11-26T08:27:21.689Z,81.46
2018-11-26T08:32:23.740Z,81.07
2018-11-26T08:37:31.652Z,80.99
2018-11-26T08:42:39.678Z,81.25
2018-11-26T08:47:43.038Z,80.87
2018-11-26T08:52:45.190Z,80.86
2018-11-26T08:57:47.241Z,80.40
2018-11-26T09:02:59.801Z,80.60
2018-11-26T09:08:01.877Z,80.04
2018-11-26T09:13:03.972Z,80.42
2018-11-26T09:18:06.052Z,80.71
2018-11-26T09:23:08.443Z,80.20
2018-11-26T09:28:10.639Z,79.95
2018-11-26T09:33:12.697Z,79.99
2018-11-26T09:38:14.983Z,80.21
2018-11-26T09:43:17.025Z,79.39
2018-11-26T09:48:19.113Z,78.97
2018-11-26T09:53:21.300Z,77.99
2018-11-26T09:58:23.314Z,77.59
2018-11-26T10:03:25.336Z,77.29
2018-11-26T10:08:27.667Z,77.72
2018-11-26T10:13:29.691Z,77.45
2018-11-26T10:18:31.703Z,77.29
2018-11-26T10:23:33.824Z,75.47
2018-11-26T10:28:35.869Z,76.22
2018-11-26T10:33:37.916Z,76.26
2018-11-26T10:38:39.971Z,76.18
2018-11-26T10:43:42.133Z,76.05
2018-11-26T10:48:51.070Z,76.04
2018-11-26T10:53:53.462Z,76.10
2018-11-26T10:58:55.542Z,75.42
2018-11-26T11:03:57.636Z,75.92
2018-11-26T11:08:59.685Z,76.02
2018-11-26T11:14:02.113Z,76.45
2018-11-26T11:19:04.364Z,76.60
2018-11-26T11:24:06.516Z,77.29
2018-11-26T11:29:08.572Z,77.00
2018-11-26T11:34:10.659Z,76.32
2018-11-26T11:39:12.751Z,76.85
2018-11-26T11:44:14.831Z,76.76
2018-11-26T11:49:16.911Z,76.99
2018-11-26T11:54:18.994Z,77.04
2018-11-26T11:59:21.033Z,76.61
2018-11-26T12:04:23.162Z,77.66
2018-11-26T12:09:25.238Z,76.89
2018-11-26T12:14:27.278Z,76.58
2018-11-26T12:19:29.514Z,76.67
2018-11-26T12:24:31.587Z,76.79
2018-11-26T12:29:33.670Z,76.82
2018-11-26T12:34:35.751Z,77.45
2018-11-26T12:39:37.910Z,77.60
2018-11-26T12:44:47.133Z,78.29
2018-11-26T12:49:49.218Z,77.86
2018-11-26T12:54:51.364Z,78.08
2018-11-26T12:59:53.436Z,78.29
2018-11-26T13:04:55.565Z,78.31
2018-11-26T13:10:04.414Z,78.00
2018-11-26T13:15:10.174Z,78.75
2018-11-26T13:20:14.333Z,78.94
2018-11-26T13:25:18.315Z,79.30
2018-11-26T13:30:24.523Z,79.20
2018-11-26T13:35:26.663Z,79.47
2018-11-26T13:40:28.749Z,79.33
2018-11-26T13:45:33.446Z,78.90
2018-11-26T13:50:40.553Z,79.35
2018-11-26T13:55:42.696Z,79.40
2018-11-26T14:00:45.040Z,79.89
2018-11-26T14:05:47.095Z,79.54
2018-11-26T14:10:49.166Z,78.96
2018-11-26T14:15:51.288Z,79.09
2018-11-26T14:20:53.353Z,79.50
2018-11-26T14:25:55.465Z,78.64
2018-11-26T14:30:57.538Z,78.34
2018-11-26T14:35:59.605Z,77.80
2018-11-26T14:41:01.668Z,77.22
2018-11-26T14:46:04.205Z,77.55
2018-11-26T14:51:06.342Z,78.18
2018-11-26T14:56:09.012Z,77.86
2018-11-26T15:01:11.062Z,78.39
2018-11-26T15:06:13.142Z,78.62
2018-11-26T15:11:15.230Z,77.64
2018-11-26T15:16:18.468Z,76.91
2018-11-26T15:21:20.838Z,77.11
2018-11-26T15:26:23.650Z,76.80
2018-11-26T15:31:25.965Z,77.21
2018-11-26T15:36:28.049Z,76.50
2018-11-26T15:41:30.220Z,75.55
2018-11-26T15:46:32.286Z,74.79
2018-11-26T15:51:34.814Z,75.40
2018-11-26T15:56:36.878Z,75.71
2018-11-26T16:01:39.159Z,76.29
2018-11-26T16:06:41.190Z,76.32
2018-11-26T16:11:43.223Z,75.67
2018-11-26T16:16:45.258Z,76.15
2018-11-26T16:21:47.365Z,75.03
2018-11-26T16:26:53.745Z,75.44
2018-11-26T16:31:55.806Z,75.04
2018-11-26T16:36:58.123Z,75.43
2018-11-26T16:42:00.187Z,75.05
2018-11-26T16:47:02.249Z,75.03
2018-11-26T16:52:05.483Z,76.23
2018-11-26T16:57:07.566Z,76.15
2018-11-26T17:02:09.614Z,76.52
2018-11-26T17:07:11.673Z,76.31
2018-11-26T17:12:13.747Z,76.61
2018-11-26T17:17:15.785Z,76.39
2018-11-26T17:22:17.913Z,77.44
2018-11-26T17:27:20.114Z,76.20
2018-11-26T17:32:22.142Z,75.74
2018-11-26T17:37:24.189Z,76.27
2018-11-26T17:42:33.290Z,76.78
2018-11-26T17:47:35.910Z,76.74
2018-11-26T17:52:37.952Z,76.60
2018-11-26T17:57:40.094Z,76.98
2018-11-26T18:02:43.171Z,77.04
2018-11-26T18:07:47.242Z,76.53
2018-11-26T18:12:49.367Z,77.32
2018-11-26T18:17:51.387Z,77.24
2018-11-26T18:22:54.306Z,77.45
2018-11-26T18:27:59.484Z,78.20
2018-11-26T18:33:01.551Z,77.01
2018-11-26T18:38:03.833Z,77.71
2018-11-26T18:43:07.308Z,76.83
2018-11-26T18:48:10.881Z,77.49
2018-11-26T18:53:12.916Z,77.72
2018-11-26T18:58:15.043Z,76.92
2018-11-26T19:03:17.218Z,76.94
2018-11-26T19:08:19.258Z,76.42
2018-11-26T19:13:27.301Z,76.03
2018-11-26T19:18:29.343Z,76.42
2018-11-26T19:23:31.431Z,76.90
2018-11-26T19:28:33.631Z,76.17
2018-11-26T19:33:35.669Z,76.14
2018-11-26T19:38:37.755Z,76.06
2018-11-26T19:43:39.769Z,75.44
2018-11-26T19:48:42.044Z,75.77
2018-11-26T19:53:44.065Z,75.91
2018-11-26T19:58:46.174Z,75.50
2018-11-26T20:03:51.568Z,75.65
2018-11-26T20:08:56.836Z,75.51
2018-11-26T20:13:58.899Z,76.12
2018-11-26T20:19:00.969Z,76.13
2018-11-26T20:24:03.033Z,76.09
2018-11-26T20:29:05.822Z,75.83
2018-11-26T20:34:07.857Z,75.80
2018-11-26T20:39:10.184Z,74.77
2018-11-26T20:44:12.612Z,75.52
2018-11-26T20:49:15.004Z,75.38
2018-11-26T20:54:17.121Z,75.50
2018-11-26T20:59:19.366Z,75.41
2018-11-26T21:04:21.954Z,75.04
2018-11-26T21:09:24.042Z,74.81
2018-11-26T21:14:26.055Z,74.41
2018-11-26T21:19:28.096Z,74.61
2018-11-26T21:24:30.149Z,74.55
2018-11-26T21:29:32.165Z,74.77
2018-11-26T21:34:34.278Z,74.08
2018-11-26T21:39:36.395Z,74.32
2018-11-26T21:44:38.402Z,74.31
2018-11-26T21:49:40.673Z,73.74
2018-11-26T21:54:42.981Z,73.32
2018-11-26T21:59:44.982Z,74.50
2018-11-26T22:04:48.559Z,73.44
2018-11-26T22:09:50.611Z,74.00
2018-11-26T22:14:52.638Z,74.14
2018-11-26T22:19:55.009Z,73.41
2018-11-26T22:24:57.249Z,73.33
2018-11-26T22:29:59.649Z,73.93
2018-11-26T22:35:02.284Z,73.09
2018-11-26T22:40:09.393Z,73.22
2018-11-26T22:45:21.107Z,72.55
2018-11-26T22:50:23.265Z,73.08
2018-11-26T22:55:25.313Z,72.18
2018-11-26T23:00:35.218Z,73.32
2018-11-26T23:05:37.585Z,73.20
2018-11-26T23:10:39.871Z,72.76
2018-11-26T23:15:41.914Z,72.85
2018-11-26T23:20:44.238Z,72.06
2018-11-26T23:25:46.293Z,72.44
2018-11-26T23:30:48.339Z,71.78
2018-11-26T23:35:50.687Z,72.49
2018-11-26T23:40:52.749Z,72.46
2018-11-26T23:45:54.778Z,72.77
2018-11-26T23:50:56.854Z,72.63
2018-11-26T23:55:58.891Z,73.35
